Jade — 9HVS8 — position and weather

sailwx.info

Track history (hours):
 
Tides and Currents Weather Stations Pressure Air Temp Water Temp Dewpoint Dewpoint Depression Visibility Wind Speed Wind Dir Waves Ship Positions

Jade

Last reported at 2016-Jan-18 15:29 UTC. Time now 2016-Feb-11 02:31 UTC.
Position N 44°26' E 037°22'.
Warning: this ship's position is 23 days out of date.

Length 175 m; draft 9.9 m.

Type: Ship (hazmat cat C). MMSI: 256491000.

Date/timePositionNaut miles runAvg speedWind from/ knotsBaromVisibWave heightAir tempDewpointWater temp
2016-Jan-18 15:29N 44°26' E 037°22'1212.9
2016-Jan-18 14:33N 44°31' E 037°37'1312.8
2016-Jan-18 13:33N 44°40' E 037°51'4 4.3
2016-Jan-18 12:33N 44°36' E 037°48'7 7.3
2016-Jan-18 11:33N 44°35' E 037°37'2 2.0
2016-Jan-18 10:33N 44°34' E 037°40'2 2.0
2016-Jan-18 09:33N 44°33' E 037°42'2 1.9
2016-Jan-18 08:33N 44°32' E 037°44'2 1.9
2016-Jan-18 07:33N 44°31' E 037°46'2 1.9
2016-Jan-18 06:33N 44°29' E 037°48'2 1.6
2016-Jan-18 05:33N 44°28' E 037°50'6 5.9
2016-Jan-18 04:33N 44°32' E 037°43'3 2.7
2016-Jan-18 03:33N 44°29' E 037°44'2 2.0
2016-Jan-18 02:33N 44°27' E 037°46'1 1.3
2016-Jan-18 01:33N 44°27' E 037°47'1 0.8
2016-Jan-18 00:33N 44°27' E 037°46'1 0.6
2016-Jan-17 23:33N 44°28' E 037°47'9 9.2
2016-Jan-17 22:33N 44°35' E 037°39'2 1.7
2016-Jan-17 21:33N 44°34' E 037°39'2 2.0
2016-Jan-17 20:33N 44°32' E 037°41'2 1.9
2016-Jan-17 19:33N 44°30' E 037°42'2 1.9
2016-Jan-17 18:33N 44°29' E 037°44'2 2.0
2016-Jan-17 17:33N 44°27' E 037°45'0 0.2
2016-Jan-17 16:33N 44°27' E 037°45'1010.1
2016-Jan-17 15:33N 44°35' E 037°36'1 1.1
2016-Jan-17 14:33N 44°36' E 037°35'2 2.1
2016-Jan-17 13:33N 44°35' E 037°38'2 2.2
2016-Jan-17 12:33N 44°33' E 037°40'2 2.1
2016-Jan-17 11:33N 44°32' E 037°43'2 2.1
2016-Jan-17 10:33N 44°31' E 037°45'2 2.1
2016-Jan-17 09:33N 44°29' E 037°47'2 2.1
2016-Jan-17 08:33N 44°29' E 037°44'1010.2
2016-Jan-17 07:33N 44°33' E 037°31'2 1.6
2016-Jan-17 06:33N 44°34' E 037°29'2 2.2
2016-Jan-17 05:34N 44°32' E 037°31'2 2.2
2016-Jan-17 04:34N 44°31' E 037°34'2 2.3
2016-Jan-17 03:33N 44°29' E 037°36'2 2.2
2016-Jan-17 02:33N 44°28' E 037°39'2 2.1
2016-Jan-17 01:34N 44°27' E 037°41'2 2.0
2016-Jan-17 00:34N 44°26' E 037°43'6 5.8
2016-Jan-16 23:33N 44°30' E 037°37'7 7.3
2016-Jan-16 22:33N 44°36' E 037°32'3 2.6
2016-Jan-16 21:33N 44°35' E 037°35'3 2.6
2016-Jan-16 20:33N 44°33' E 037°38'2 2.3
2016-Jan-16 19:34N 44°32' E 037°40'2 2.2
2016-Jan-16 18:32N 44°30' E 037°42'2 2.2
2016-Jan-16 17:33N 44°28' E 037°45'3 2.5
2016-Jan-16 16:33N 44°30' E 037°42'1010.1
2016-Jan-16 15:34N 44°36' E 037°30'3 2.7
2016-Jan-16 14:33N 44°37' E 037°27'3 2.6
2016-Jan-16 13:33N 44°35' E 037°30'2 2.4
2016-Jan-16 12:33N 44°34' E 037°33'3 2.5
2016-Jan-16 11:33N 44°32' E 037°36'2 2.4
2016-Jan-16 10:33N 44°31' E 037°38'2 2.2
2016-Jan-16 09:33N 44°29' E 037°40'2 1.8
2016-Jan-16 08:33N 44°28' E 037°42'6 5.5
2016-Jan-16 07:33N 44°33' E 037°41'1 0.9
2016-Jan-16 06:33N 44°33' E 037°42'2 2.0
2016-Jan-16 05:33N 44°31' E 037°43'2 2.0
2016-Jan-16 04:33N 44°29' E 037°44'2 2.2
2016-Jan-16 03:34N 44°27' E 037°45'8 7.7
2016-Jan-16 02:33N 44°34' E 037°47'8 8.2
2016-Jan-16 01:33N 44°42' E 037°50'1 0.5
2016-Jan-16 00:33N 44°42' E 037°51'0 0.0
2016-Jan-15 23:31N 44°42' E 037°51'0 0.0
2016-Jan-15 22:31N 44°42' E 037°51'0 0.0
2016-Jan-15 21:31N 44°42' E 037°51'0 0.0
2016-Jan-15 20:13N 44°42' E 037°51'0 0.0
2016-Jan-15 19:31N 44°42' E 037°51'0 0.0
2016-Jan-15 18:31N 44°42' E 037°51'0 0.0
2016-Jan-15 17:31N 44°42' E 037°51'0 0.0
2016-Jan-15 16:31N 44°42' E 037°51'0 0.0
2016-Jan-15 15:31N 44°42' E 037°51'0 0.0
2016-Jan-15 14:31N 44°42' E 037°51'0 0.0
2016-Jan-15 13:31N 44°42' E 037°51'0 0.0
2016-Jan-15 12:31N 44°42' E 037°51'0 0.0
2016-Jan-15 11:31N 44°42' E 037°51'0 0.0
2016-Jan-15 10:31N 44°42' E 037°51'0 0.0
2016-Jan-15 09:31N 44°42' E 037°51'0 0.0
2016-Jan-15 08:31N 44°42' E 037°51'0 0.0
2016-Jan-15 07:31N 44°42' E 037°51'0 0.0
2016-Jan-15 06:31N 44°42' E 037°51'0 0.0
2016-Jan-15 05:31N 44°42' E 037°51'0 0.0
2016-Jan-15 04:31N 44°42' E 037°51'0 0.0
2016-Jan-15 03:31N 44°42' E 037°51'0 0.0
2016-Jan-15 02:31N 44°42' E 037°51'0 0.0
2016-Jan-15 01:31N 44°42' E 037°51'0 0.0
2016-Jan-15 00:31N 44°42' E 037°51'0 0.0
2016-Jan-14 23:19N 44°42' E 037°51'0 0.0
2016-Jan-14 22:31N 44°42' E 037°51'0 0.0
2016-Jan-14 21:31N 44°42' E 037°51'0 0.0
2016-Jan-14 20:31N 44°42' E 037°51'0 0.0
2016-Jan-14 19:31N 44°42' E 037°51'0 0.0
2016-Jan-14 18:25N 44°42' E 037°51'0 0.0
2016-Jan-14 17:31N 44°42' E 037°51'0 0.0
2016-Jan-14 16:31N 44°42' E 037°51'0 0.0
2016-Jan-14 15:31N 44°42' E 037°51'0 0.0
2016-Jan-14 14:31N 44°42' E 037°51'0 0.0
2016-Jan-14 13:31N 44°42' E 037°51'0 0.0
2016-Jan-14 12:31N 44°42' E 037°51'0 0.0
2016-Jan-14 11:31N 44°42' E 037°51'0 0.0
2016-Jan-14 10:31N 44°42' E 037°51'0 0.0
2016-Jan-14 09:31N 44°42' E 037°51'0 0.0
2016-Jan-14 08:31N 44°42' E 037°51'0 0.0
2016-Jan-14 07:31N 44°42' E 037°51'0 0.0
2016-Jan-14 06:31N 44°42' E 037°51'0 0.0
2016-Jan-14 05:31N 44°42' E 037°51'0 0.0
2016-Jan-14 04:31N 44°42' E 037°51'0 0.0
2016-Jan-14 03:31N 44°42' E 037°51'0 0.0
2016-Jan-14 02:31N 44°42' E 037°51'0 0.0
2016-Jan-14 01:31N 44°42' E 037°51'0 0.0
2016-Jan-14 00:31N 44°42' E 037°51'0 0.0
2016-Jan-13 23:31N 44°42' E 037°51'0 0.0
2016-Jan-13 22:31N 44°42' E 037°51'0 0.0
2016-Jan-13 21:31N 44°42' E 037°51'0 0.0
2016-Jan-13 20:31N 44°42' E 037°51'0 0.0
2016-Jan-13 19:31N 44°42' E 037°51'0 0.0
2016-Jan-13 18:31N 44°42' E 037°51'0 0.0
2016-Jan-13 17:31N 44°42' E 037°51'0 0.0
2016-Jan-13 16:31N 44°42' E 037°51'0 0.0
2016-Jan-13 15:33N 44°42' E 037°51'2 2.3
2016-Jan-13 14:33N 44°40' E 037°50'8 8.1
2016-Jan-13 13:34N 44°32' E 037°50'8 8.2
2016-Jan-13 12:34N 44°25' E 037°44'1 1.3
2016-Jan-13 11:33N 44°24' E 037°43'1 1.4
2016-Jan-13 10:34N 44°23' E 037°43'1 1.3
2016-Jan-13 09:33N 44°21' E 037°43'1 1.2
2016-Jan-13 08:33N 44°20' E 037°43'1 1.2
2016-Jan-13 07:33N 44°19' E 037°43'1 1.2
2016-Jan-13 06:33N 44°18' E 037°43'1 1.2
2016-Jan-13 05:34N 44°17' E 037°44'1 1.0
2016-Jan-13 04:33N 44°16' E 037°44'0 0.2
2016-Jan-13 03:32N 44°16' E 037°44'1010.2
2016-Jan-13 02:33N 44°26' E 037°46'2 1.5
2016-Jan-13 01:34N 44°25' E 037°47'2 1.7
2016-Jan-13 00:33N 44°23' E 037°47'2 1.9
2016-Jan-12 23:32N 44°21' E 037°48'2 2.3
2016-Jan-12 22:33N 44°19' E 037°48'2 2.5
2016-Jan-12 21:33N 44°16' E 037°48'3 2.2
2016-Jan-12 20:20N 44°14' E 037°48'6 7.5
2016-Jan-12 19:34N 44°19' E 037°46'8 7.6
2016-Jan-12 18:33N 44°26' E 037°42'3 2.7
2016-Jan-12 17:33N 44°24' E 037°43'1 1.3
2016-Jan-12 16:33N 44°23' E 037°42'1111.0
2016-Jan-12 15:33N 44°24' E 037°27'3 2.3
2016-Jan-12 14:11N 44°24' E 037°22'2 3.1
2016-Jan-12 13:33N 44°23' E 037°25'3 3.0
2016-Jan-12 12:33N 44°22' E 037°28'3 2.9
2016-Jan-12 11:33N 44°21' E 037°32'3 2.7
2016-Jan-12 10:31N 44°20' E 037°36'2 2.4
2016-Jan-12 09:32N 44°19' E 037°39'1 1.3
2016-Jan-12 08:33N 44°18' E 037°40'9 9.4
2016-Jan-12 07:33N 44°25' E 037°31'5 5.1
2016-Jan-12 06:33N 44°27' E 037°24'3 2.9
2016-Jan-12 05:32N 44°26' E 037°28'12 2.7
2016-Jan-12 01:04N 44°19' E 037°42'2 4.8
2016-Jan-12 00:33N 44°21' E 037°39'1111.0
2016-Jan-11 23:33N 44°28' E 037°27'2 2.2
2016-Jan-11 22:33N 44°29' E 037°25'3 2.0
2016-Jan-11 21:17N 44°28' E 037°28'2 1.8
2016-Jan-11 20:06N 44°27' E 037°30'1 1.9
2016-Jan-11 19:33N 44°26' E 037°32'2 1.8
2016-Jan-11 18:33N 44°25' E 037°34'1 0.2
2016-Jan-11 10:33N 44°26' E 037°32'3 2.6
2016-Jan-11 09:33N 44°24' E 037°35'3 2.6
2016-Jan-11 08:33N 44°23' E 037°38'5 4.5
2016-Jan-11 07:33N 44°27' E 037°35'1 1.2
2016-Jan-11 06:33N 44°27' E 037°33'2 2.3
2016-Jan-11 05:32N 44°25' E 037°35'2 2.1
2016-Jan-11 04:34N 44°23' E 037°36'1 1.4
2016-Jan-11 03:33N 44°22' E 037°36'8 7.3
2016-Jan-11 02:31N 44°24' E 037°26'9 1.8
2016-Jan-10 21:33N 44°20' E 037°37'8 7.8
2016-Jan-10 20:33N 44°28' E 037°35'1 1.0
2016-Jan-10 19:33N 44°27' E 037°35'2 1.9
2016-Jan-10 18:33N 44°25' E 037°35'7 6.2
2016-Jan-10 17:27N 44°25' E 037°26'7 2.3
2016-Jan-10 14:25N 44°19' E 037°32'2 2.2
2016-Jan-10 13:31N 44°18' E 037°34'2 2.5
2016-Jan-10 12:34N 44°20' E 037°37'7 6.9
2016-Jan-10 11:33N 44°26' E 037°41'1 1.5
2016-Jan-10 10:33N 44°25' E 037°40'1 1.2
2016-Jan-10 09:34N 44°24' E 037°39'5 5.3
2016-Jan-10 08:34N 44°24' E 037°31'43112.5
2016-Jan-08 22:07N 40°55' E 028°58'4 6.5
2016-Jan-08 21:29N 40°53' E 028°54'  
Track history (hours):
 
Tides and Currents Weather Stations Pressure Air Temp Water Temp Dewpoint Dewpoint Depression Visibility Wind Speed Wind Dir Waves Ship Positions

Jade

Last reported at 2016-Jan-18 15:29 UTC. Time now 2016-Feb-11 02:31 UTC.
Position N 44°26' E 037°22'.
Warning: this ship's position is 23 days out of date.

Length 175 m; draft 9.9 m.

Type: Ship (hazmat cat C). MMSI: 256491000.

Date/timePositionNaut miles runAvg speedWind from/ knotsBaromVisibWave heightAir tempDewpointWater temp
2016-Jan-18 15:29N 44°26' E 037°22'1212.9
2016-Jan-18 14:33N 44°31' E 037°37'1312.8
2016-Jan-18 13:33N 44°40' E 037°51'4 4.3
2016-Jan-18 12:33N 44°36' E 037°48'7 7.3
2016-Jan-18 11:33N 44°35' E 037°37'2 2.0
2016-Jan-18 10:33N 44°34' E 037°40'2 2.0
2016-Jan-18 09:33N 44°33' E 037°42'2 1.9
2016-Jan-18 08:33N 44°32' E 037°44'2 1.9
2016-Jan-18 07:33N 44°31' E 037°46'2 1.9
2016-Jan-18 06:33N 44°29' E 037°48'2 1.6
2016-Jan-18 05:33N 44°28' E 037°50'6 5.9
2016-Jan-18 04:33N 44°32' E 037°43'3 2.7
2016-Jan-18 03:33N 44°29' E 037°44'2 2.0
2016-Jan-18 02:33N 44°27' E 037°46'1 1.3
2016-Jan-18 01:33N 44°27' E 037°47'1 0.8
2016-Jan-18 00:33N 44°27' E 037°46'1 0.6
2016-Jan-17 23:33N 44°28' E 037°47'9 9.2
2016-Jan-17 22:33N 44°35' E 037°39'2 1.7
2016-Jan-17 21:33N 44°34' E 037°39'2 2.0
2016-Jan-17 20:33N 44°32' E 037°41'2 1.9
2016-Jan-17 19:33N 44°30' E 037°42'2 1.9
2016-Jan-17 18:33N 44°29' E 037°44'2 2.0
2016-Jan-17 17:33N 44°27' E 037°45'0 0.2
2016-Jan-17 16:33N 44°27' E 037°45'1010.1
2016-Jan-17 15:33N 44°35' E 037°36'1 1.1
2016-Jan-17 14:33N 44°36' E 037°35'2 2.1
2016-Jan-17 13:33N 44°35' E 037°38'2 2.2
2016-Jan-17 12:33N 44°33' E 037°40'2 2.1
2016-Jan-17 11:33N 44°32' E 037°43'2 2.1
2016-Jan-17 10:33N 44°31' E 037°45'2 2.1
2016-Jan-17 09:33N 44°29' E 037°47'2 2.1
2016-Jan-17 08:33N 44°29' E 037°44'1010.2
2016-Jan-17 07:33N 44°33' E 037°31'2 1.6
2016-Jan-17 06:33N 44°34' E 037°29'2 2.2
2016-Jan-17 05:34N 44°32' E 037°31'2 2.2
2016-Jan-17 04:34N 44°31' E 037°34'2 2.3
2016-Jan-17 03:33N 44°29' E 037°36'2 2.2
2016-Jan-17 02:33N 44°28' E 037°39'2 2.1
2016-Jan-17 01:34N 44°27' E 037°41'2 2.0
2016-Jan-17 00:34N 44°26' E 037°43'6 5.8
2016-Jan-16 23:33N 44°30' E 037°37'7 7.3
2016-Jan-16 22:33N 44°36' E 037°32'3 2.6
2016-Jan-16 21:33N 44°35' E 037°35'3 2.6
2016-Jan-16 20:33N 44°33' E 037°38'2 2.3
2016-Jan-16 19:34N 44°32' E 037°40'2 2.2
2016-Jan-16 18:32N 44°30' E 037°42'2 2.2
2016-Jan-16 17:33N 44°28' E 037°45'3 2.5
2016-Jan-16 16:33N 44°30' E 037°42'1010.1
2016-Jan-16 15:34N 44°36' E 037°30'3 2.7
2016-Jan-16 14:33N 44°37' E 037°27'3 2.6
2016-Jan-16 13:33N 44°35' E 037°30'2 2.4
2016-Jan-16 12:33N 44°34' E 037°33'3 2.5
2016-Jan-16 11:33N 44°32' E 037°36'2 2.4
2016-Jan-16 10:33N 44°31' E 037°38'2 2.2
2016-Jan-16 09:33N 44°29' E 037°40'2 1.8
2016-Jan-16 08:33N 44°28' E 037°42'6 5.5
2016-Jan-16 07:33N 44°33' E 037°41'1 0.9
2016-Jan-16 06:33N 44°33' E 037°42'2 2.0
2016-Jan-16 05:33N 44°31' E 037°43'2 2.0
2016-Jan-16 04:33N 44°29' E 037°44'2 2.2
2016-Jan-16 03:34N 44°27' E 037°45'8 7.7
2016-Jan-16 02:33N 44°34' E 037°47'8 8.2
2016-Jan-16 01:33N 44°42' E 037°50'1 0.5
2016-Jan-16 00:33N 44°42' E 037°51'0 0.0
2016-Jan-15 23:31N 44°42' E 037°51'0 0.0
2016-Jan-15 22:31N 44°42' E 037°51'0 0.0
2016-Jan-15 21:31N 44°42' E 037°51'0 0.0
2016-Jan-15 20:13N 44°42' E 037°51'0 0.0
2016-Jan-15 19:31N 44°42' E 037°51'0 0.0
2016-Jan-15 18:31N 44°42' E 037°51'0 0.0
2016-Jan-15 17:31N 44°42' E 037°51'0 0.0
2016-Jan-15 16:31N 44°42' E 037°51'0 0.0
2016-Jan-15 15:31N 44°42' E 037°51'0 0.0
2016-Jan-15 14:31N 44°42' E 037°51'0 0.0
2016-Jan-15 13:31N 44°42' E 037°51'0 0.0
2016-Jan-15 12:31N 44°42' E 037°51'0 0.0
2016-Jan-15 11:31N 44°42' E 037°51'0 0.0
2016-Jan-15 10:31N 44°42' E 037°51'0 0.0
2016-Jan-15 09:31N 44°42' E 037°51'0 0.0
2016-Jan-15 08:31N 44°42' E 037°51'0 0.0
2016-Jan-15 07:31N 44°42' E 037°51'0 0.0
2016-Jan-15 06:31N 44°42' E 037°51'0 0.0
2016-Jan-15 05:31N 44°42' E 037°51'0 0.0
2016-Jan-15 04:31N 44°42' E 037°51'0 0.0
2016-Jan-15 03:31N 44°42' E 037°51'0 0.0
2016-Jan-15 02:31N 44°42' E 037°51'0 0.0
2016-Jan-15 01:31N 44°42' E 037°51'0 0.0
2016-Jan-15 00:31N 44°42' E 037°51'0 0.0
2016-Jan-14 23:19N 44°42' E 037°51'0 0.0
2016-Jan-14 22:31N 44°42' E 037°51'0 0.0
2016-Jan-14 21:31N 44°42' E 037°51'0 0.0
2016-Jan-14 20:31N 44°42' E 037°51'0 0.0
2016-Jan-14 19:31N 44°42' E 037°51'0 0.0
2016-Jan-14 18:25N 44°42' E 037°51'0 0.0
2016-Jan-14 17:31N 44°42' E 037°51'0 0.0
2016-Jan-14 16:31N 44°42' E 037°51'0 0.0
2016-Jan-14 15:31N 44°42' E 037°51'0 0.0
2016-Jan-14 14:31N 44°42' E 037°51'0 0.0
2016-Jan-14 13:31N 44°42' E 037°51'0 0.0
2016-Jan-14 12:31N 44°42' E 037°51'0 0.0
2016-Jan-14 11:31N 44°42' E 037°51'0 0.0
2016-Jan-14 10:31N 44°42' E 037°51'0 0.0
2016-Jan-14 09:31N 44°42' E 037°51'0 0.0
2016-Jan-14 08:31N 44°42' E 037°51'0 0.0
2016-Jan-14 07:31N 44°42' E 037°51'0 0.0
2016-Jan-14 06:31N 44°42' E 037°51'0 0.0
2016-Jan-14 05:31N 44°42' E 037°51'0 0.0
2016-Jan-14 04:31N 44°42' E 037°51'0 0.0
2016-Jan-14 03:31N 44°42' E 037°51'0 0.0
2016-Jan-14 02:31N 44°42' E 037°51'0 0.0
2016-Jan-14 01:31N 44°42' E 037°51'0 0.0
2016-Jan-14 00:31N 44°42' E 037°51'0 0.0
2016-Jan-13 23:31N 44°42' E 037°51'0 0.0
2016-Jan-13 22:31N 44°42' E 037°51'0 0.0
2016-Jan-13 21:31N 44°42' E 037°51'0 0.0
2016-Jan-13 20:31N 44°42' E 037°51'0 0.0
2016-Jan-13 19:31N 44°42' E 037°51'0 0.0
2016-Jan-13 18:31N 44°42' E 037°51'0 0.0
2016-Jan-13 17:31N 44°42' E 037°51'0 0.0
2016-Jan-13 16:31N 44°42' E 037°51'0 0.0
2016-Jan-13 15:33N 44°42' E 037°51'2 2.3
2016-Jan-13 14:33N 44°40' E 037°50'8 8.1
2016-Jan-13 13:34N 44°32' E 037°50'8 8.2
2016-Jan-13 12:34N 44°25' E 037°44'1 1.3
2016-Jan-13 11:33N 44°24' E 037°43'1 1.4
2016-Jan-13 10:34N 44°23' E 037°43'1 1.3
2016-Jan-13 09:33N 44°21' E 037°43'1 1.2
2016-Jan-13 08:33N 44°20' E 037°43'1 1.2
2016-Jan-13 07:33N 44°19' E 037°43'1 1.2
2016-Jan-13 06:33N 44°18' E 037°43'1 1.2
2016-Jan-13 05:34N 44°17' E 037°44'1 1.0
2016-Jan-13 04:33N 44°16' E 037°44'0 0.2
2016-Jan-13 03:32N 44°16' E 037°44'1010.2
2016-Jan-13 02:33N 44°26' E 037°46'2 1.5
2016-Jan-13 01:34N 44°25' E 037°47'2 1.7
2016-Jan-13 00:33N 44°23' E 037°47'2 1.9
2016-Jan-12 23:32N 44°21' E 037°48'2 2.3
2016-Jan-12 22:33N 44°19' E 037°48'2 2.5
2016-Jan-12 21:33N 44°16' E 037°48'3 2.2
2016-Jan-12 20:20N 44°14' E 037°48'6 7.5
2016-Jan-12 19:34N 44°19' E 037°46'8 7.6
2016-Jan-12 18:33N 44°26' E 037°42'3 2.7
2016-Jan-12 17:33N 44°24' E 037°43'1 1.3
2016-Jan-12 16:33N 44°23' E 037°42'1111.0
2016-Jan-12 15:33N 44°24' E 037°27'3 2.3
2016-Jan-12 14:11N 44°24' E 037°22'2 3.1
2016-Jan-12 13:33N 44°23' E 037°25'3 3.0
2016-Jan-12 12:33N 44°22' E 037°28'3 2.9
2016-Jan-12 11:33N 44°21' E 037°32'3 2.7
2016-Jan-12 10:31N 44°20' E 037°36'2 2.4
2016-Jan-12 09:32N 44°19' E 037°39'1 1.3
2016-Jan-12 08:33N 44°18' E 037°40'9 9.4
2016-Jan-12 07:33N 44°25' E 037°31'5 5.1
2016-Jan-12 06:33N 44°27' E 037°24'3 2.9
2016-Jan-12 05:32N 44°26' E 037°28'12 2.7
2016-Jan-12 01:04N 44°19' E 037°42'2 4.8
2016-Jan-12 00:33N 44°21' E 037°39'1111.0
2016-Jan-11 23:33N 44°28' E 037°27'2 2.2
2016-Jan-11 22:33N 44°29' E 037°25'3 2.0
2016-Jan-11 21:17N 44°28' E 037°28'2 1.8
2016-Jan-11 20:06N 44°27' E 037°30'1 1.9
2016-Jan-11 19:33N 44°26' E 037°32'2 1.8
2016-Jan-11 18:33N 44°25' E 037°34'1 0.2
2016-Jan-11 10:33N 44°26' E 037°32'3 2.6
2016-Jan-11 09:33N 44°24' E 037°35'3 2.6
2016-Jan-11 08:33N 44°23' E 037°38'5 4.5
2016-Jan-11 07:33N 44°27' E 037°35'1 1.2
2016-Jan-11 06:33N 44°27' E 037°33'2 2.3
2016-Jan-11 05:32N 44°25' E 037°35'2 2.1
2016-Jan-11 04:34N 44°23' E 037°36'1 1.4
2016-Jan-11 03:33N 44°22' E 037°36'8 7.3
2016-Jan-11 02:31N 44°24' E 037°26'9 1.8
2016-Jan-10 21:33N 44°20' E 037°37'8 7.8
2016-Jan-10 20:33N 44°28' E 037°35'1 1.0
2016-Jan-10 19:33N 44°27' E 037°35'2 1.9
2016-Jan-10 18:33N 44°25' E 037°35'7 6.2
2016-Jan-10 17:27N 44°25' E 037°26'7 2.3
2016-Jan-10 14:25N 44°19' E 037°32'2 2.2
2016-Jan-10 13:31N 44°18' E 037°34'2 2.5
2016-Jan-10 12:34N 44°20' E 037°37'7 6.9
2016-Jan-10 11:33N 44°26' E 037°41'1 1.5
2016-Jan-10 10:33N 44°25' E 037°40'1 1.2
2016-Jan-10 09:34N 44°24' E 037°39'5 5.3
2016-Jan-10 08:34N 44°24' E 037°31'43112.5
2016-Jan-08 22:07N 40°55' E 028°58'4 6.5
2016-Jan-08 21:29N 40°53' E 028°54'  

Dump ship's entire track history